Time;durP1;ratioP1;P1;durP2;ratioP2;P2;SDS_P1;SDS_P2;PMS_P1;PMS_P2;Temp;Humidity;BMP_temperature;BMP_pressure;BME280_temperature;BME280_humidity;BME280_pressure;Samples;Min_cycle;Max_cycle;Signal;HPM_P1;HPM_P2
2021/07/31 00:01:52;;;;;;;58.90;3.00;;;19.40;1.00;;;;;;4992391;28;20453;-74
2021/07/31 00:04:19;;;;;;;58.47;2.87;;;19.30;1.00;;;;;;4992109;28;20498;-74
2021/07/31 00:06:46;;;;;;;58.27;2.73;;;19.30;1.00;;;;;;4992530;28;20534;-74
2021/07/31 00:09:13;;;;;;;59.27;3.13;;;19.30;1.00;;;;;;4991974;28;20474;-74
2021/07/31 00:11:40;;;;;;;57.97;2.40;;;19.20;1.00;;;;;;4992286;28;20477;-74
2021/07/31 00:14:08;;;;;;;58.37;2.67;;;19.20;1.00;;;;;;4992135;28;20454;-74
2021/07/31 00:16:35;;;;;;;58.40;2.87;;;19.20;1.00;;;;;;4992381;28;20505;-74
2021/07/31 00:19:02;;;;;;;58.17;3.00;;;19.20;1.00;;;;;;4992038;28;20928;-74
2021/07/31 00:21:29;;;;;;;58.03;3.03;;;19.20;1.00;;;;;;4992035;28;21030;-74
2021/07/31 00:23:56;;;;;;;57.90;2.50;;;19.20;1.00;;;;;;4992079;28;20453;-75
2021/07/31 00:26:23;;;;;;;58.37;2.90;;;19.20;1.00;;;;;;4992309;28;20537;-75
2021/07/31 00:28:50;;;;;;;58.27;2.70;;;19.20;1.00;;;;;;4992136;28;20533;-74
2021/07/31 00:31:18;;;;;;;58.70;2.70;;;19.30;1.00;;;;;;4994461;28;20558;-74
2021/07/31 00:33:45;;;;;;;58.00;2.40;;;19.30;1.00;;;;;;4996002;28;20449;-74
2021/07/31 00:36:12;;;;;;;58.20;2.60;;;19.30;1.00;;;;;;4996119;28;20581;-74
2021/07/31 00:38:38;;;;;;;58.63;2.80;;;19.40;1.00;;;;;;4996110;28;21042;-74
2021/07/31 00:41:05;;;;;;;57.80;2.30;;;19.40;1.00;;;;;;4995641;28;20852;-74
2021/07/31 00:43:32;;;;;;;58.03;2.20;;;19.40;1.00;;;;;;4995916;28;20545;-75
2021/07/31 00:45:59;;;;;;;58.20;2.20;;;19.50;1.00;;;;;;4995676;28;20533;-75
2021/07/31 00:48:28;;;;;;;57.97;2.37;;;19.50;1.00;;;;;;4996059;28;20446;-75
2021/07/31 00:50:54;;;;;;;57.90;2.10;;;19.40;1.00;;;;;;4995507;28;20496;-75
2021/07/31 00:53:22;;;;;;;58.20;2.77;;;19.40;1.00;;;;;;4995939;28;20540;-74
2021/07/31 00:55:50;;;;;;;58.20;2.40;;;19.30;1.00;;;;;;4995581;28;20573;-75
2021/07/31 00:58:17;;;;;;;57.93;2.23;;;19.30;1.00;;;;;;4995695;28;20542;-74
2021/07/31 01:00:44;;;;;;;57.97;2.20;;;19.20;1.00;;;;;;4995182;28;20486;-75
2021/07/31 01:03:11;;;;;;;58.03;2.20;;;19.20;1.00;;;;;;4995467;28;20465;-76
2021/07/31 01:05:40;;;;;;;58.07;2.20;;;19.10;1.00;;;;;;4995359;28;21032;-76
2021/07/31 01:08:07;;;;;;;58.17;2.87;;;19.00;1.00;;;;;;4995629;28;20897;-75
2021/07/31 01:10:34;;;;;;;57.87;2.30;;;18.80;1.00;;;;;;4995182;28;20474;-75
2021/07/31 01:13:01;;;;;;;58.20;2.43;;;18.70;1.00;;;;;;4995343;28;20542;-75
2021/07/31 01:15:28;;;;;;;58.07;2.30;;;18.70;1.00;;;;;;4995573;28;20485;-75
2021/07/31 01:17:55;;;;;;;58.83;2.50;;;18.60;1.00;;;;;;4995490;28;20457;-75
2021/07/31 01:20:23;;;;;;;58.60;2.60;;;18.60;1.00;;;;;;4994801;28;20584;-75
2021/07/31 01:22:51;;;;;;;58.50;3.10;;;18.60;1.00;;;;;;4995244;28;20874;-75
2021/07/31 01:25:20;;;;;;;58.07;2.30;;;18.60;1.00;;;;;;4995211;28;20450;-75
2021/07/31 01:27:47;;;;;;;57.87;2.30;;;18.60;1.00;;;;;;4994881;28;20968;-76
2021/07/31 01:30:14;;;;;;;58.37;2.40;;;18.60;1.00;;;;;;4994715;28;20470;-75
2021/07/31 01:32:41;;;;;;;58.27;3.20;;;18.60;1.00;;;;;;4995168;28;20450;-76
2021/07/31 01:35:08;;;;;;;58.27;2.50;;;18.60;1.00;;;;;;4995093;28;20500;-75
2021/07/31 01:37:35;;;;;;;59.10;2.60;;;18.60;1.00;;;;;;4994862;28;20453;-76
2021/07/31 01:40:04;;;;;;;58.17;2.40;;;18.60;1.00;;;;;;4994937;28;20500;-75
2021/07/31 01:42:31;;;;;;;58.27;2.40;;;18.70;1.00;;;;;;4994211;28;20493;-75
2021/07/31 01:44:58;;;;;;;58.23;2.40;;;18.70;1.00;;;;;;4994688;28;20959;-75
2021/07/31 01:47:25;;;;;;;58.07;2.60;;;18.70;1.00;;;;;;4994374;28;20475;-75
2021/07/31 01:49:52;;;;;;;58.37;2.80;;;18.70;1.00;;;;;;4993071;28;20525;-75
2021/07/31 01:52:19;;;;;;;58.13;2.40;;;18.70;1.00;;;;;;4994819;28;20548;-75
2021/07/31 01:54:45;;;;;;;57.87;2.40;;;18.60;1.00;;;;;;4994679;28;20857;-75
2021/07/31 01:57:14;;;;;;;58.47;2.60;;;18.60;1.00;;;;;;4994582;28;20533;-75
2021/07/31 01:59:41;;;;;;;58.50;2.40;;;18.60;1.00;;;;;;4994329;28;20453;-74
2021/07/31 02:02:07;;;;;;;57.77;2.50;;;18.50;1.00;;;;;;4994246;28;20549;-75
2021/07/31 02:04:35;;;;;;;58.03;2.60;;;18.50;1.00;;;;;;4994548;28;20446;-75
2021/07/31 02:07:02;;;;;;;59.10;3.43;;;18.40;1.00;;;;;;4994473;28;20453;-75
2021/07/31 02:09:29;;;;;;;58.80;2.70;;;18.40;1.00;;;;;;4994018;28;20445;-75
2021/07/31 02:11:55;;;;;;;57.70;2.27;;;18.30;1.00;;;;;;4994270;28;20462;-75
2021/07/31 02:14:24;;;;;;;57.77;2.20;;;18.30;1.00;;;;;;4994181;28;21004;-74
2021/07/31 02:16:50;;;;;;;58.20;2.37;;;18.30;1.00;;;;;;4993960;28;20489;-75
2021/07/31 02:19:17;;;;;;;59.47;3.67;;;18.20;1.00;;;;;;4993736;28;20450;-74
2021/07/31 02:21:44;;;;;;;58.47;2.60;;;18.20;1.00;;;;;;4994134;28;20469;-75
2021/07/31 02:24:11;;;;;;;57.73;2.30;;;18.20;1.00;;;;;;4994083;28;20451;-75
2021/07/31 02:26:38;;;;;;;57.67;2.20;;;18.20;1.00;;;;;;4994080;28;20460;-74
2021/07/31 02:29:05;;;;;;;58.13;2.33;;;18.20;1.00;;;;;;4993912;28;20545;-75
2021/07/31 02:31:33;;;;;;;58.20;2.30;;;18.20;1.00;;;;;;4993695;28;20480;-74
2021/07/31 02:34:00;;;;;;;57.97;2.40;;;18.20;1.00;;;;;;4994030;28;20534;-75
2021/07/31 02:36:27;;;;;;;58.30;2.80;;;18.20;1.00;;;;;;4993757;28;21108;-75
2021/07/31 02:38:54;;;;;;;57.97;2.30;;;18.20;1.00;;;;;;4993905;28;20540;-74
2021/07/31 02:41:20;;;;;;;58.07;2.23;;;18.10;1.00;;;;;;4993344;28;20558;-76
2021/07/31 02:43:47;;;;;;;58.27;2.60;;;18.10;1.00;;;;;;4993616;28;20449;-75
2021/07/31 02:46:14;;;;;;;58.20;2.77;;;18.00;1.00;;;;;;4994227;28;20540;-75
2021/07/31 02:48:43;;;;;;;58.37;2.50;;;17.90;1.00;;;;;;4993722;28;20560;-75
2021/07/31 02:51:11;;;;;;;58.37;2.37;;;17.90;1.00;;;;;;4993124;28;20469;-75
2021/07/31 02:53:39;;;;;;;58.20;2.40;;;17.80;1.00;;;;;;4992592;28;20445;-75
2021/07/31 02:56:06;;;;;;;57.87;2.50;;;17.80;1.00;;;;;;4993562;28;20511;-75
2021/07/31 02:58:33;;;;;;;57.83;2.50;;;17.70;1.00;;;;;;4993159;28;20553;-75
2021/07/31 03:01:03;;;;;;;57.97;2.30;;;17.60;1.00;;;;;;4993092;28;20481;-75
2021/07/31 03:03:30;;;;;;;58.10;2.30;;;17.50;1.00;;;;;;4993232;28;20846;-75
2021/07/31 03:06:00;;;;;;;58.07;2.40;;;17.50;1.00;;;;;;4993511;28;20480;-75
2021/07/31 03:08:27;;;;;;;58.37;2.33;;;17.40;1.00;;;;;;4993376;28;20882;-74
2021/07/31 03:10:56;;;;;;;58.13;2.67;;;17.40;1.00;;;;;;4992616;28;20564;-74
2021/07/31 03:13:23;;;;;;;58.50;2.37;;;17.40;1.00;;;;;;4993252;28;20595;-74
2021/07/31 03:15:50;;;;;;;57.77;2.33;;;17.30;1.00;;;;;;4993251;28;20934;-75
2021/07/31 03:18:17;;;;;;;58.13;2.60;;;17.30;1.00;;;;;;4993219;28;20535;-74
2021/07/31 03:20:47;;;;;;;58.33;2.40;;;17.30;1.00;;;;;;4992578;28;20474;-75
2021/07/31 03:23:17;;;;;;;58.47;2.70;;;17.20;1.00;;;;;;4992876;28;20458;-74
2021/07/31 03:25:44;;;;;;;58.23;2.40;;;17.10;1.00;;;;;;4992966;28;20899;-75
2021/07/31 03:28:11;;;;;;;58.47;2.70;;;17.00;1.00;;;;;;4993080;28;20468;-75
2021/07/31 03:30:41;;;;;;;58.17;2.47;;;17.00;1.00;;;;;;4992763;28;20797;-75
2021/07/31 03:33:08;;;;;;;58.33;2.60;;;16.90;1.00;;;;;;4993010;28;20865;-74
2021/07/31 03:35:35;;;;;;;58.17;2.50;;;16.80;1.00;;;;;;4992756;28;20574;-75
2021/07/31 03:38:01;;;;;;;58.17;2.70;;;16.70;1.00;;;;;;4992634;28;20453;-75
2021/07/31 03:40:30;;;;;;;58.23;2.70;;;16.60;1.00;;;;;;4992540;28;20518;-74
2021/07/31 03:42:57;;;;;;;58.53;2.50;;;16.50;1.00;;;;;;4993074;28;20538;-75
2021/07/31 03:45:24;;;;;;;58.47;2.50;;;16.40;1.00;;;;;;4992655;28;20474;-75
2021/07/31 03:47:51;;;;;;;57.80;2.50;;;16.40;1.00;;;;;;4992658;28;20453;-75
2021/07/31 03:50:18;;;;;;;57.97;2.40;;;16.40;1.00;;;;;;4992140;28;20476;-75
2021/07/31 03:52:45;;;;;;;58.23;2.40;;;16.30;1.00;;;;;;4992509;28;20535;-75
2021/07/31 03:55:13;;;;;;;58.50;2.60;;;16.30;1.00;;;;;;4992623;28;20488;-74
2021/07/31 03:57:41;;;;;;;59.10;2.90;;;16.20;1.00;;;;;;4992618;28;20535;-74
2021/07/31 04:00:09;;;;;;;58.53;2.97;;;16.20;1.00;;;;;;4992145;28;20843;-74
2021/07/31 04:02:36;;;;;;;58.90;2.80;;;16.20;1.00;;;;;;4992460;28;20459;-75
2021/07/31 04:05:03;;;;;;;58.27;2.70;;;16.10;1.00;;;;;;4992008;28;20480;-75
2021/07/31 04:07:30;;;;;;;58.57;2.40;;;16.10;1.00;;;;;;4992553;28;20534;-74
2021/07/31 04:09:57;;;;;;;58.03;2.50;;;16.10;1.00;;;;;;4992113;28;20500;-74
2021/07/31 04:12:24;;;;;;;58.47;2.70;;;16.00;1.00;;;;;;4992414;28;20498;-74
2021/07/31 04:14:52;;;;;;;58.00;2.53;;;15.90;1.00;;;;;;4992144;28;20448;-74
2021/07/31 04:17:19;;;;;;;58.40;2.80;;;15.90;1.00;;;;;;4992257;28;20569;-74
2021/07/31 04:19:45;;;;;;;58.47;2.83;;;15.80;1.00;;;;;;4991871;28;20539;-75
2021/07/31 04:22:12;;;;;;;58.47;2.60;;;15.70;1.00;;;;;;4992486;28;20540;-74
2021/07/31 04:24:39;;;;;;;58.03;2.40;;;15.70;1.00;;;;;;4992322;28;20539;-74
2021/07/31 04:27:06;;;;;;;58.37;2.70;;;15.60;1.00;;;;;;4992534;28;20455;-74
2021/07/31 04:29:33;;;;;;;58.50;2.40;;;15.50;1.00;;;;;;4991766;28;20451;-74
2021/07/31 04:32:01;;;;;;;58.37;2.87;;;15.50;1.00;;;;;;4991989;28;20538;-74
2021/07/31 04:34:29;;;;;;;58.90;2.70;;;15.50;1.00;;;;;;4991928;28;20450;-74
2021/07/31 04:36:56;;;;;;;58.17;2.50;;;15.50;1.00;;;;;;4992381;28;20509;-74
2021/07/31 04:39:23;;;;;;;57.90;2.50;;;15.50;1.00;;;;;;4992025;28;20538;-74
2021/07/31 04:41:50;;;;;;;58.57;3.10;;;15.40;1.00;;;;;;4991940;28;21004;-75
2021/07/31 04:44:17;;;;;;;57.97;2.70;;;15.40;1.00;;;;;;4991580;28;20539;-73
2021/07/31 04:46:43;;;;;;;58.33;2.70;;;15.40;1.00;;;;;;4991829;28;20534;-73
2021/07/31 04:49:12;;;;;;;58.73;2.67;;;15.40;1.00;;;;;;4992045;28;20545;-74
2021/07/31 04:51:39;;;;;;;58.53;2.67;;;15.40;1.00;;;;;;4991745;28;20566;-74
2021/07/31 04:54:05;;;;;;;58.63;2.70;;;15.40;1.00;;;;;;4992060;28;20474;-74
2021/07/31 04:56:32;;;;;;;58.60;2.60;;;15.40;1.00;;;;;;4991960;28;20923;-74
2021/07/31 04:58:59;;;;;;;58.27;2.70;;;15.40;1.00;;;;;;4991859;28;20820;-73
2021/07/31 05:01:26;;;;;;;58.47;2.70;;;15.40;1.00;;;;;;4991399;28;20463;-73
2021/07/31 05:03:53;;;;;;;58.57;2.67;;;15.40;1.00;;;;;;4991906;28;20469;-73
2021/07/31 05:06:22;;;;;;;58.47;2.60;;;15.40;1.00;;;;;;4992116;28;20451;-73
2021/07/31 05:08:49;;;;;;;58.60;2.70;;;15.40;1.00;;;;;;4991976;28;20463;-73
2021/07/31 05:11:18;;;;;;;58.17;2.60;;;15.40;1.00;;;;;;4991402;28;20473;-74
2021/07/31 05:13:45;;;;;;;58.37;2.60;;;15.40;1.00;;;;;;4991795;28;20447;-75
2021/07/31 05:16:14;;;;;;;58.27;2.60;;;15.40;1.00;;;;;;4992692;28;20878;-74
2021/07/31 05:18:41;;;;;;;58.07;3.20;;;15.50;1.00;;;;;;4995382;28;20457;-74
2021/07/31 05:21:08;;;;;;;58.33;2.60;;;15.40;1.00;;;;;;4994704;28;20551;-74
2021/07/31 05:23:37;;;;;;;58.67;2.80;;;15.50;1.00;;;;;;4995233;28;20490;-74
2021/07/31 05:26:04;;;;;;;58.47;2.70;;;15.50;1.00;;;;;;4995269;28;20530;-74
2021/07/31 05:28:31;;;;;;;58.23;2.70;;;15.60;1.00;;;;;;4994975;28;20451;-74
2021/07/31 05:30:58;;;;;;;58.17;2.43;;;15.60;1.00;;;;;;4994740;28;20573;-74
2021/07/31 05:33:24;;;;;;;58.13;2.60;;;15.70;1.00;;;;;;4995198;28;20456;-74
2021/07/31 05:35:52;;;;;;;57.70;2.90;;;15.80;1.00;;;;;;4994935;28;21045;-75
2021/07/31 05:38:19;;;;;;;58.13;2.60;;;15.80;1.00;;;;;;4995064;28;20451;-73
2021/07/31 05:40:47;;;;;;;59.00;3.53;;;15.90;1.00;;;;;;4994394;28;20562;-74
2021/07/31 05:43:14;;;;;;;58.17;2.50;;;15.90;1.00;;;;;;4995045;28;20538;-74
2021/07/31 05:45:41;;;;;;;58.23;3.10;;;16.00;1.00;;;;;;4994867;28;20539;-74
2021/07/31 05:48:07;;;;;;;57.87;2.37;;;16.00;1.00;;;;;;4994705;28;20990;-75
2021/07/31 05:50:34;;;;;;;58.30;2.60;;;16.10;1.00;;;;;;4994624;28;20552;-74
2021/07/31 05:53:01;;;;;;;58.57;2.53;;;16.20;1.00;;;;;;4994812;28;20540;-74
2021/07/31 05:55:28;;;;;;;58.37;2.73;;;16.20;1.00;;;;;;4994474;28;21011;-75
2021/07/31 05:57:56;;;;;;;57.93;2.40;;;16.30;1.00;;;;;;4994638;28;20582;-74
2021/07/31 06:00:23;;;;;;;58.27;2.60;;;16.30;1.00;;;;;;4994512;28;20499;-74
2021/07/31 06:02:50;;;;;;;58.43;2.50;;;16.30;1.00;;;;;;4994372;28;20908;-75
2021/07/31 06:05:17;;;;;;;58.47;2.60;;;16.40;1.00;;;;;;4994472;28;20447;-73
2021/07/31 06:07:44;;;;;;;58.17;2.60;;;16.40;1.00;;;;;;4994430;28;20453;-75
2021/07/31 06:10:11;;;;;;;58.30;2.63;;;16.50;1.00;;;;;;4994049;28;20478;-75
2021/07/31 06:12:38;;;;;;;58.50;2.60;;;16.50;1.00;;;;;;4994357;28;20538;-74
2021/07/31 06:15:07;;;;;;;58.17;2.40;;;16.60;1.00;;;;;;4994440;28;20444;-75
2021/07/31 06:17:34;;;;;;;58.37;2.50;;;16.60;1.00;;;;;;4994230;28;20910;-74
2021/07/31 06:20:00;;;;;;;57.67;2.23;;;16.70;1.00;;;;;;4993864;28;20512;-75
2021/07/31 06:22:27;;;;;;;57.80;2.23;;;16.80;1.00;;;;;;4994048;28;20539;-75
2021/07/31 06:24:54;;;;;;;58.97;3.00;;;16.80;1.00;;;;;;4993987;28;20483;-74
2021/07/31 06:27:21;;;;;;;58.23;2.33;;;16.90;1.00;;;;;;4994393;28;20873;-74
2021/07/31 06:29:48;;;;;;;57.83;2.50;;;17.00;1.00;;;;;;4993848;28;20559;-75
2021/07/31 06:32:16;;;;;;;58.10;2.90;;;17.00;1.00;;;;;;4993855;28;20585;-74
2021/07/31 06:34:43;;;;;;;57.93;2.40;;;17.10;1.00;;;;;;4993994;28;20551;-74
2021/07/31 06:37:10;;;;;;;58.00;2.33;;;17.10;1.00;;;;;;4993843;28;20524;-74
2021/07/31 06:39:36;;;;;;;58.03;2.30;;;17.20;1.00;;;;;;4993551;28;20481;-74
2021/07/31 06:42:04;;;;;;;58.07;2.57;;;17.20;1.00;;;;;;4993758;28;20867;-75
2021/07/31 06:44:31;;;;;;;57.83;2.20;;;17.30;1.00;;;;;;4993935;28;20596;-74
2021/07/31 06:46:57;;;;;;;58.20;2.90;;;17.40;1.00;;;;;;4993550;28;20541;-74
2021/07/31 06:49:26;;;;;;;58.10;2.97;;;17.40;1.00;;;;;;4993297;28;20541;-74
2021/07/31 06:51:53;;;;;;;57.97;2.20;;;17.50;1.00;;;;;;4993865;28;20569;-74
2021/07/31 06:54:20;;;;;;;58.40;2.50;;;17.50;1.00;;;;;;4993544;28;20971;-74
2021/07/31 06:56:47;;;;;;;57.77;2.30;;;17.60;1.00;;;;;;4993558;28;20496;-74
2021/07/31 06:59:14;;;;;;;58.07;2.47;;;17.60;1.00;;;;;;4993128;28;20541;-74
2021/07/31 07:01:40;;;;;;;58.07;2.40;;;17.70;1.00;;;;;;4993264;28;20573;-74
2021/07/31 07:04:07;;;;;;;58.07;2.30;;;17.80;1.00;;;;;;4993222;28;20500;-74
2021/07/31 07:06:36;;;;;;;58.70;2.60;;;17.90;1.00;;;;;;4993226;28;20486;-74
2021/07/31 07:09:02;;;;;;;57.83;2.30;;;17.90;1.00;;;;;;4993268;28;20934;-74
2021/07/31 07:11:29;;;;;;;58.20;2.30;;;17.90;1.00;;;;;;4993113;28;20470;-74
2021/07/31 07:13:56;;;;;;;57.97;2.30;;;18.00;1.00;;;;;;4993190;28;20548;-74
2021/07/31 07:16:23;;;;;;;57.77;2.13;;;18.10;1.00;;;;;;4993102;28;20482;-74
2021/07/31 07:18:50;;;;;;;57.70;2.23;;;18.20;1.00;;;;;;4992905;28;20486;-74
2021/07/31 07:21:16;;;;;;;60.70;2.53;;;18.30;1.00;;;;;;4992897;28;20558;-75
2021/07/31 07:23:45;;;;;;;57.97;2.20;;;18.30;1.00;;;;;;4992983;28;20825;-74
2021/07/31 07:26:12;;;;;;;58.07;2.60;;;18.40;1.00;;;;;;4990615;28;20914;-73
2021/07/31 07:28:39;;;;;;;58.10;2.80;;;18.40;1.00;;;;;;4981326;28;20491;-74
2021/07/31 07:31:06;;;;;;;57.77;2.30;;;18.50;1.00;;;;;;4972452;28;20472;-74
2021/07/31 07:33:33;;;;;;;57.93;2.30;;;18.60;1.00;;;;;;4972804;28;20888;-74
2021/07/31 07:36:01;;;;;;;57.97;2.40;;;18.70;1.00;;;;;;4972962;28;20448;-74
2021/07/31 07:38:28;;;;;;;57.50;2.40;;;18.80;1.00;;;;;;4972644;28;20487;-74
2021/07/31 07:40:56;;;;;;;58.10;2.13;;;19.00;1.00;;;;;;4972714;28;20481;-74
2021/07/31 07:43:23;;;;;;;57.70;2.17;;;19.10;1.00;;;;;;4972789;28;20448;-73
2021/07/31 07:45:50;;;;;;;57.97;2.27;;;19.20;1.00;;;;;;4975899;28;20498;-75
2021/07/31 07:48:17;;;;;;;57.93;2.13;;;19.30;1.00;;;;;;4992733;28;20461;-75
2021/07/31 07:50:44;;;;;;;57.73;2.27;;;19.50;1.00;;;;;;4992304;28;20558;-73
2021/07/31 07:53:11;;;;;;;57.47;2.23;;;19.60;1.00;;;;;;4992523;28;20534;-74
2021/07/31 07:55:38;;;;;;;57.87;2.30;;;19.60;1.00;;;;;;4992494;28;20890;-75
2021/07/31 07:58:10;;;;;;;57.57;2.10;;;19.70;1.00;;;;;;4991867;28;21026;-74
2021/07/31 08:00:38;;;;;;;61.50;4.43;;;19.80;1.00;;;;;;4991457;28;20553;-75
2021/07/31 08:03:07;;;;;;;57.90;2.53;;;19.90;1.00;;;;;;4992076;28;20506;-74
2021/07/31 08:05:34;;;;;;;57.63;2.20;;;20.00;1.00;;;;;;4992236;28;20456;-74
2021/07/31 08:08:02;;;;;;;57.57;2.20;;;20.20;1.00;;;;;;4992325;28;20454;-75
2021/07/31 08:10:29;;;;;;;58.03;2.20;;;20.30;1.00;;;;;;4992047;28;20474;-75
2021/07/31 08:12:55;;;;;;;58.27;2.53;;;20.40;1.00;;;;;;4992083;28;21022;-76
2021/07/31 08:15:24;;;;;;;57.70;2.20;;;20.50;1.00;;;;;;4992391;28;20584;-74
2021/07/31 08:17:51;;;;;;;57.87;2.10;;;20.60;1.00;;;;;;4992188;28;21081;-73
2021/07/31 08:20:18;;;;;;;57.77;2.40;;;20.70;1.00;;;;;;4991890;28;20502;-74
2021/07/31 08:22:45;;;;;;;57.93;2.30;;;20.90;1.00;;;;;;4991683;28;20561;-74
2021/07/31 08:25:12;;;;;;;57.97;2.40;;;21.10;1.00;;;;;;4992013;28;20533;-74
2021/07/31 08:27:39;;;;;;;58.10;2.73;;;21.30;1.00;;;;;;4989794;28;20817;-75
2021/07/31 08:30:07;;;;;;;57.93;2.13;;;21.40;1.00;;;;;;4991807;28;20567;-75
2021/07/31 08:32:35;;;;;;;57.47;2.30;;;21.40;1.00;;;;;;4992101;28;20543;-75
2021/07/31 08:35:02;;;;;;;58.43;2.87;;;21.30;1.00;;;;;;4992095;28;20960;-75
2021/07/31 08:37:29;;;;;;;57.97;2.50;;;21.20;1.00;;;;;;4992131;28;20576;-74
2021/07/31 08:39:57;;;;;;;58.50;2.67;;;21.30;1.00;;;;;;4991607;28;20528;-75
2021/07/31 08:42:24;;;;;;;58.20;2.50;;;21.40;1.00;;;;;;4992128;28;20552;-75
2021/07/31 08:44:51;;;;;;;58.30;2.30;;;21.50;1.00;;;;;;4991957;28;20454;-75
2021/07/31 08:47:18;;;;;;;57.73;2.33;;;21.60;1.00;;;;;;4992053;28;20447;-75
2021/07/31 08:49:46;;;;;;;57.93;2.47;;;21.90;1.00;;;;;;4991703;28;20482;-75
2021/07/31 08:52:15;;;;;;;57.57;2.40;;;22.00;1.00;;;;;;4994591;28;20458;-74
2021/07/31 08:54:42;;;;;;;57.50;2.60;;;22.10;1.00;;;;;;4995626;28;20454;-74
2021/07/31 08:57:11;;;;;;;57.93;2.30;;;22.00;1.00;;;;;;4995817;28;20577;-74
2021/07/31 08:59:38;;;;;;;57.87;2.30;;;22.00;1.00;;;;;;4993182;28;20534;-75
2021/07/31 09:02:05;;;;;;;57.77;2.20;;;22.10;1.00;;;;;;4995286;28;21021;-74
2021/07/31 09:04:32;;;;;;;59.07;3.53;;;22.00;1.00;;;;;;4995091;28;20447;-74
2021/07/31 09:07:11;;;;;;;57.70;2.10;;;21.90;1.00;;;;;;4995547;28;20451;-74
2021/07/31 09:09:38;;;;;;;58.00;2.30;;;21.90;1.00;;;;;;4994987;28;20461;-74
2021/07/31 09:12:07;;;;;;;57.90;2.20;;;22.00;1.00;;;;;;4995546;28;20546;-74
2021/07/31 09:14:35;;;;;;;57.67;2.13;;;22.10;1.00;;;;;;4995451;28;20935;-74
2021/07/31 09:17:02;;;;;;;57.73;2.30;;;22.20;1.00;;;;;;4995536;28;20493;-74
2021/07/31 09:19:29;;;;;;;57.73;2.37;;;22.20;1.00;;;;;;4995088;28;20607;-75
2021/07/31 09:22:05;;;;;;;57.47;2.10;;;22.30;1.00;;;;;;4995535;28;20542;-74
2021/07/31 09:24:32;;;;;;;57.97;2.53;;;22.40;1.00;;;;;;4995009;28;20968;-74
2021/07/31 09:26:59;;;;;;;57.80;2.27;;;22.50;1.00;;;;;;4995294;28;20739;-74
2021/07/31 09:29:27;;;;;;;58.00;2.43;;;22.60;1.00;;;;;;4994835;28;20541;-74
2021/07/31 09:31:57;;;;;;;58.40;2.80;;;22.60;1.00;;;;;;4993477;28;20529;-74
2021/07/31 09:34:30;;;;;;;57.63;2.20;;;22.60;1.00;;;;;;4995073;28;20456;-74
2021/07/31 09:37:12;;;;;;;57.77;2.10;;;22.60;1.00;;;;;;4995186;28;20537;-75
2021/07/31 09:39:51;;;;;;;57.77;2.10;;;22.80;1.00;;;;;;4994561;28;20456;-74
2021/07/31 09:42:32;;;;;;;57.67;2.10;;;22.90;1.00;;;;;;4994874;28;20538;-75
2021/07/31 09:45:01;;;;;;;57.63;2.30;;;23.10;1.00;;;;;;4994437;28;20533;-74
2021/07/31 09:47:28;;;;;;;57.90;2.23;;;23.40;1.00;;;;;;4995099;28;20532;-74
2021/07/31 09:49:57;;;;;;;57.73;2.30;;;23.50;1.00;;;;;;4994312;28;20563;-74
2021/07/31 09:52:26;;;;;;;57.77;2.13;;;23.60;1.00;;;;;;4994706;28;20453;-75
2021/07/31 09:54:56;;;;;;;57.87;2.10;;;23.80;1.00;;;;;;4994778;28;20913;-74
2021/07/31 09:57:26;;;;;;;57.80;2.20;;;24.00;1.00;;;;;;4994512;28;20493;-74
2021/07/31 09:59:56;;;;;;;57.70;2.00;;;24.20;1.00;;;;;;4994521;28;20475;-74
2021/07/31 10:02:23;;;;;;;57.77;2.20;;;24.30;1.00;;;;;;4992354;28;21051;-75
2021/07/31 10:04:52;;;;;;;57.87;2.17;;;24.40;1.00;;;;;;4994057;28;20976;-75
2021/07/31 10:07:19;;;;;;;57.97;2.20;;;24.60;1.00;;;;;;4994504;28;20508;-75
2021/07/31 10:09:50;;;;;;;57.67;2.10;;;24.90;1.00;;;;;;4993899;28;20454;-74
2021/07/31 10:12:18;;;;;;;57.73;2.17;;;25.30;1.00;;;;;;4994317;28;20482;-74
2021/07/31 10:14:46;;;;;;;57.90;2.20;;;25.40;1.00;;;;;;4994541;28;20458;-76
2021/07/31 10:17:13;;;;;;;57.80;2.20;;;25.60;1.00;;;;;;4994409;28;20448;-74
2021/07/31 10:19:42;;;;;;;57.73;2.10;;;25.90;1.00;;;;;;4993877;28;20449;-74
2021/07/31 10:22:10;;;;;;;57.67;2.00;;;26.30;1.00;;;;;;4993666;28;20450;-74
2021/07/31 10:25:08;;;;;;;57.67;2.00;;;26.60;1.00;;;;;;4993736;28;20457;-74
2021/07/31 10:27:36;;;;;;;58.00;2.50;;;26.60;1.00;;;;;;4993914;28;20470;-74
2021/07/31 10:30:05;;;;;;;57.53;2.00;;;27.30;1.00;;;;;;4991833;28;20467;-73
2021/07/31 10:32:40;;;;;;;57.17;2.00;;;28.20;1.00;;;;;;4993820;28;20445;-72
2021/07/31 10:35:09;;;;;;;57.37;1.90;;;29.40;1.00;;;;;;4993870;28;20478;-72
2021/07/31 10:37:42;;;;;;;57.47;2.00;;;30.10;1.00;;;;;;4993562;28;20608;-72
2021/07/31 10:40:21;;;;;;;57.43;2.10;;;30.20;1.00;;;;;;4990581;28;20497;-72
2021/07/31 10:43:04;;;;;;;57.43;2.00;;;30.50;1.00;;;;;;4993720;28;20460;-73
2021/07/31 10:45:32;;;;;;;57.73;2.17;;;31.40;1.00;;;;;;4993482;28;20823;-72
2021/07/31 10:47:59;;;;;;;57.27;2.00;;;31.40;1.00;;;;;;4993846;28;20819;-73
2021/07/31 10:50:41;;;;;;;57.80;2.20;;;30.90;1.00;;;;;;4992767;28;20474;-74
2021/07/31 10:53:11;;;;;;;58.23;2.77;;;30.70;1.00;;;;;;4990541;28;20466;-73
2021/07/31 10:56:02;;;;;;;57.07;1.90;;;31.50;1.00;;;;;;4993202;28;20458;-72
2021/07/31 10:58:31;;;;;;;57.20;1.93;;;32.20;1.00;;;;;;4993460;28;20574;-73
2021/07/31 11:01:23;;;;;;;57.17;1.80;;;32.00;1.00;;;;;;4993299;28;20471;-72
2021/07/31 11:03:50;;;;;;;57.40;1.90;;;32.60;1.00;;;;;;4992953;28;20462;-71
2021/07/31 11:06:17;;;;;;;57.20;2.13;;;33.20;1.00;;;;;;4992985;28;20443;-73
2021/07/31 11:09:14;;;;;;;57.07;1.90;;;33.70;1.00;;;;;;4993409;28;20823;-74
2021/07/31 11:11:43;;;;;;;57.10;2.00;;;34.50;1.00;;;;;;4948785;28;20487;-72
2021/07/31 11:14:10;;;;;;;57.13;1.93;;;34.80;1.00;;;;;;4992073;28;20545;-71
2021/07/31 11:16:37;;;;;;;56.80;1.90;;;35.50;1.00;;;;;;4993017;28;20490;-72
2021/07/31 11:19:04;;;;;;;57.20;1.90;;;36.00;1.00;;;;;;4992793;28;20493;-71
2021/07/31 11:21:33;;;;;;;57.00;1.90;;;36.30;1.00;;;;;;4992641;28;20477;-74
2021/07/31 11:24:02;;;;;;;56.63;2.00;;;36.40;1.00;;;;;;4992915;28;20963;-73
2021/07/31 11:26:39;;;;;;;57.20;2.00;;;36.10;1.00;;;;;;4992709;28;20545;-71
2021/07/31 11:29:12;;;;;;;57.40;2.53;;;36.00;1.00;;;;;;4992499;28;20957;-74
2021/07/31 11:31:40;;;;;;;56.90;1.90;;;35.50;1.00;;;;;;4992669;28;20554;-74
2021/07/31 11:34:09;;;;;;;56.97;1.80;;;35.10;1.00;;;;;;4992694;28;20446;-73
2021/07/31 11:36:38;;;;;;;56.77;1.77;;;34.50;1.00;;;;;;4992289;28;20879;-72
2021/07/31 11:39:05;;;;;;;56.63;1.73;;;34.60;1.00;;;;;;4992147;28;20479;-73
2021/07/31 11:41:39;;;;;;;56.87;1.90;;;34.70;1.00;;;;;;4990632;28;20481;-73
2021/07/31 11:44:06;;;;;;;56.77;1.90;;;34.80;1.00;;;;;;4992792;28;20455;-73
2021/07/31 11:46:38;;;;;;;56.87;1.90;;;35.30;1.00;;;;;;4991927;28;21037;-73
2021/07/31 11:49:10;;;;;;;57.00;1.97;;;36.20;1.00;;;;;;4992447;28;20454;-72
2021/07/31 11:51:45;;;;;;;56.77;2.00;;;36.60;1.00;;;;;;4991767;28;20467;-73
2021/07/31 11:54:12;;;;;;;57.03;1.90;;;37.10;1.00;;;;;;4992235;28;20457;-73
2021/07/31 11:56:41;;;;;;;57.00;1.90;;;37.40;1.00;;;;;;4992206;28;20707;-73
2021/07/31 11:59:08;;;;;;;56.87;1.83;;;36.90;1.00;;;;;;4992192;28;21021;-73
2021/07/31 12:01:39;;;;;;;57.10;2.30;;;35.60;1.00;;;;;;4992263;28;21103;-73
2021/07/31 12:04:06;;;;;;;57.10;1.90;;;34.90;1.00;;;;;;4992227;28;20844;-73
2021/07/31 12:06:41;;;;;;;57.50;2.10;;;34.80;1.00;;;;;;4991970;28;20478;-73
2021/07/31 12:09:21;;;;;;;57.07;2.00;;;34.90;1.00;;;;;;4992274;28;20451;-73
2021/07/31 12:11:49;;;;;;;57.40;2.17;;;35.70;1.00;;;;;;4988138;28;20471;-73
2021/07/31 12:14:36;;;;;;;57.10;2.40;;;36.50;1.00;;;;;;4973079;28;20456;-73
2021/07/31 12:17:19;;;;;;;56.57;1.90;;;37.10;1.00;;;;;;4972889;28;20448;-73
2021/07/31 12:19:47;;;;;;;57.03;2.30;;;37.80;1.00;;;;;;4972481;28;20487;-74
2021/07/31 12:22:16;;;;;;;56.67;1.90;;;38.20;1.00;;;;;;4972766;28;20834;-73
2021/07/31 12:24:43;;;;;;;59.10;2.30;;;37.20;1.00;;;;;;4973382;28;20448;-73
2021/07/31 12:27:10;;;;;;;57.00;2.00;;;36.40;1.00;;;;;;4976833;28;20950;-74
2021/07/31 12:29:38;;;;;;;56.67;1.80;;;36.20;1.00;;;;;;4976525;28;20452;-73
2021/07/31 12:32:26;;;;;;;56.73;2.17;;;36.40;1.00;;;;;;4976412;28;20542;-74
2021/07/31 12:34:54;;;;;;;59.30;2.40;;;35.80;1.00;;;;;;4976527;28;20531;-73
2021/07/31 12:37:22;;;;;;;57.03;1.93;;;35.40;1.00;;;;;;4976424;28;20451;-74
2021/07/31 12:39:52;;;;;;;56.70;1.87;;;35.70;1.00;;;;;;4975780;28;20498;-73
2021/07/31 12:42:22;;;;;;;57.00;1.90;;;36.10;1.00;;;;;;4976648;28;20448;-74
2021/07/31 12:44:49;;;;;;;56.90;1.90;;;36.20;1.00;;;;;;4975473;28;20532;-74
2021/07/31 12:47:17;;;;;;;57.60;2.00;;;35.00;1.00;;;;;;4976186;28;20458;-73
2021/07/31 12:49:45;;;;;;;58.33;2.07;;;33.60;1.00;;;;;;4975777;28;20494;-74
2021/07/31 12:52:13;;;;;;;57.03;2.03;;;33.00;1.00;;;;;;4975906;28;20796;-73
2021/07/31 12:54:40;;;;;;;56.77;1.90;;;33.60;1.00;;;;;;4975851;28;20456;-74